Time;durP1;ratioP1;P1;durP2;ratioP2;P2;SDS_P1;SDS_P2;PMS_P1;PMS_P2;Temp;Humidity;BMP_temperature;BMP_pressure;BME280_temperature;BME280_humidity;BME280_pressure;Samples;Min_cycle;Max_cycle;Signal;HPM_P1;HPM_P2
2022/09/23 00:01:47;;;;;;;22.00;9.90;;;;;;;8.26;74.78;99306.33;105946;1274;108918;-64
2022/09/23 00:04:22;;;;;;;20.70;10.10;;;;;;;8.23;74.48;99300.85;106057;1274;95288;-67
2022/09/23 00:06:53;;;;;;;20.70;9.90;;;;;;;8.21;74.65;99302.89;106058;1274;97895;-64
2022/09/23 00:09:21;;;;;;;21.70;9.70;;;;;;;8.20;74.70;99304.38;106126;1274;111350;-62
2022/09/23 00:11:52;;;;;;;21.60;10.10;;;;;;;8.20;74.86;99304.38;106103;1274;96371;-64
2022/09/23 00:14:23;;;;;;;21.60;9.70;;;;;;;8.22;74.74;99301.45;106109;1271;108236;-63
2022/09/23 00:16:51;;;;;;;22.40;10.80;;;;;;;8.20;74.57;99301.21;106156;1274;97916;-63
2022/09/23 00:19:22;;;;;;;20.80;10.40;;;;;;;8.19;74.81;99298.60;106098;1274;97861;-63
2022/09/23 00:21:52;;;;;;;21.60;10.10;;;;;;;8.20;74.93;99293.59;106164;1274;113438;-64
2022/09/23 00:24:19;;;;;;;20.80;9.70;;;;;;;8.21;75.05;99292.31;106079;1274;97773;-63
2022/09/23 00:26:49;;;;;;;22.60;11.30;;;;;;;8.23;74.94;99291.86;106045;1274;108533;-63
2022/09/23 00:29:18;;;;;;;21.00;10.40;;;;;;;8.24;74.97;99288.80;106053;1274;98009;-66
2022/09/23 00:31:46;;;;;;;22.30;10.20;;;;;;;8.21;74.88;99287.00;106667;1273;97863;-64
2022/09/23 00:34:17;;;;;;;20.90;10.90;;;;;;;8.21;75.10;99282.93;106005;1274;112723;-63
2022/09/23 00:36:45;;;;;;;22.30;11.20;;;;;;;8.23;75.01;99281.95;106085;1274;98918;-64
2022/09/23 00:39:16;;;;;;;20.40;10.30;;;;;;;8.25;75.07;99286.62;106075;1274;108612;-63
2022/09/23 00:41:44;;;;;;;21.90;10.10;;;;;;;8.26;75.03;99283.04;106087;1274;97941;-62
2022/09/23 00:44:42;;;;;;;22.70;10.80;;;;;;;8.26;74.93;99285.69;106182;1274;98037;-63
2022/09/23 00:47:30;;;;;;;22.10;11.00;;;;;;;8.24;75.10;99285.09;106073;1274;112018;-62
2022/09/23 00:50:23;;;;;;;20.90;9.60;;;;;;;8.25;75.18;99282.86;106041;1274;98668;-62
2022/09/23 00:52:56;;;;;;;21.10;9.90;;;;;;;8.28;75.09;99282.38;105969;1274;108352;-62
2022/09/23 00:55:32;;;;;;;22.90;10.80;;;;;;;8.29;75.15;99284.06;106086;1274;97879;-63
2022/09/23 00:58:06;;;;;;;22.50;10.40;;;;;;;8.29;75.10;99283.90;106089;1274;98076;-64
2022/09/23 01:00:34;;;;;;;20.80;10.80;;;;;;;8.31;75.32;99282.19;105987;1274;111386;-64
2022/09/23 01:03:05;;;;;;;21.80;10.40;;;;;;;8.34;75.17;99282.00;106063;1274;95400;-62
2022/09/23 01:05:35;;;;;;;23.10;9.90;;;;;;;8.36;75.28;99286.31;106132;1274;108713;-62
2022/09/23 01:08:07;;;;;;;25.50;11.20;;;;;;;8.38;75.33;99287.58;105983;1274;97861;-65
2022/09/23 01:10:43;;;;;;;22.60;10.70;;;;;;;8.41;75.24;99282.49;106033;1274;97858;-63
2022/09/23 01:13:36;;;;;;;25.10;10.50;;;;;;;8.42;75.29;99285.77;106018;1274;112184;-64
2022/09/23 01:16:07;;;;;;;21.00;9.70;;;;;;;8.38;75.23;99277.51;106155;1274;96597;-63
2022/09/23 01:18:55;;;;;;;20.90;10.50;;;;;;;8.38;75.37;99277.33;106069;1274;108438;-64
2022/09/23 01:21:47;;;;;;;22.10;10.70;;;;;;;8.39;75.43;99270.58;106012;1274;97899;-64
2022/09/23 01:24:40;;;;;;;22.20;10.60;;;;;;;8.40;75.42;99269.65;106077;1272;97857;-59
2022/09/23 01:28:06;;;;;;;23.00;10.10;;;;;;;8.40;75.41;99271.59;106040;1274;112082;-63
2022/09/23 01:30:39;;;;;;;20.20;10.50;;;;;;;8.39;75.50;99273.41;105771;1274;97977;-63
2022/09/23 01:33:45;;;;;;;21.50;11.10;;;;;;;8.41;75.51;99278.05;106105;1274;108469;-66
2022/09/23 01:36:36;;;;;;;22.90;10.90;;;;;;;8.43;75.48;99279.86;106039;1274;98466;-64
2022/09/23 01:39:40;;;;;;;22.00;10.30;;;;;;;8.46;75.57;99285.02;106106;1274;97886;-67
2022/09/23 01:42:33;;;;;;;22.80;11.30;;;;;;;8.47;75.62;99283.88;105904;1275;111930;-63
2022/09/23 01:45:33;;;;;;;26.00;11.90;;;;;;;8.49;75.49;99289.43;106089;1274;97884;-65
2022/09/23 01:48:24;;;;;;;21.80;11.60;;;;;;;8.51;75.60;99289.16;105990;1274;108358;-64
2022/09/23 01:51:14;;;;;;;22.70;11.60;;;;;;;8.54;75.58;99287.77;106080;1274;97839;-64
2022/09/23 01:53:51;;;;;;;23.50;11.10;;;;;;;8.55;75.68;99288.19;106118;1274;97904;-63
2022/09/23 01:56:51;;;;;;;23.30;11.60;;;;;;;8.57;75.60;99290.91;106067;1274;111479;-64
2022/09/23 01:59:44;;;;;;;24.00;11.10;;;;;;;8.58;75.58;99285.20;106186;1274;98548;-62
2022/09/23 02:02:18;;;;;;;23.50;11.50;;;;;;;8.58;75.49;99284.33;106090;1274;108394;-62
2022/09/23 02:04:55;;;;;;;22.40;11.60;;;;;;;8.56;75.62;99284.59;106041;1274;97835;-63
2022/09/23 02:07:43;;;;;;;23.30;12.20;;;;;;;8.57;75.77;99285.08;106030;1274;97892;-63
2022/09/23 02:10:23;;;;;;;25.00;11.60;;;;;;;8.59;75.72;99281.74;106068;1274;112188;-64
2022/09/23 02:12:58;;;;;;;22.60;10.80;;;;;;;8.62;75.78;99281.79;106035;1274;95266;-64
2022/09/23 02:15:43;;;;;;;25.70;12.10;;;;;;;8.63;75.65;99284.54;106085;1274;107839;-63
2022/09/23 02:18:16;;;;;;;23.60;12.10;;;;;;;8.63;75.85;99283.83;106059;1274;98086;-64
2022/09/23 02:20:49;;;;;;;24.30;11.90;;;;;;;8.63;75.75;99280.09;106126;1274;97949;-67
2022/09/23 02:23:39;;;;;;;23.40;11.50;;;;;;;8.65;75.84;99279.46;106197;1274;112202;-65
2022/09/23 02:26:18;;;;;;;25.60;13.40;;;;;;;8.66;75.78;99285.42;106096;1274;97957;-65
2022/09/23 02:29:19;;;;;;;22.70;11.60;;;;;;;8.67;75.79;99284.50;106130;1274;107638;-60
2022/09/23 02:32:14;;;;;;;25.10;13.10;;;;;;;8.66;75.84;99282.06;106147;1274;97962;-63
2022/09/23 02:35:11;;;;;;;25.10;12.80;;;;;;;8.65;75.81;99285.45;106067;1274;95307;-64
2022/09/23 02:38:18;;;;;;;24.70;13.10;;;;;;;8.66;75.83;99284.88;106053;1274;111389;-64
2022/09/23 02:40:54;;;;;;;22.70;12.40;;;;;;;8.64;75.92;99285.67;106127;1274;99094;-65
2022/09/23 02:43:34;;;;;;;24.30;11.90;;;;;;;8.65;75.86;99282.27;106144;1274;107432;-64
2022/09/23 02:46:07;;;;;;;23.10;11.80;;;;;;;8.65;75.96;99284.93;106089;1274;95262;-62
2022/09/23 02:48:42;;;;;;;21.60;11.40;;;;;;;8.62;75.86;99283.17;106063;1274;97854;-64
2022/09/23 02:51:12;;;;;;;22.60;11.70;;;;;;;8.59;75.85;99286.17;105990;1274;111430;-68
2022/09/23 02:53:40;;;;;;;21.20;9.80;;;;;;;8.57;75.76;99284.02;105894;1274;96349;-64
2022/09/23 02:56:15;;;;;;;23.50;12.00;;;;;;;8.54;75.85;99279.48;106008;1274;107895;-64
2022/09/23 02:58:46;;;;;;;23.90;11.80;;;;;;;8.52;76.01;99276.36;105969;1274;95321;-63
2022/09/23 03:01:47;;;;;;;22.00;11.50;;;;;;;8.54;75.91;99278.55;106129;1274;97838;-64
2022/09/23 03:04:46;;;;;;;23.00;11.00;;;;;;;8.55;76.04;99276.72;106013;1274;112952;-62
2022/09/23 03:07:54;;;;;;;22.10;10.90;;;;;;;8.54;75.94;99275.02;106060;1274;97959;-63
2022/09/23 03:10:30;;;;;;;21.70;11.30;;;;;;;8.53;76.04;99270.68;106129;1274;107771;-63
2022/09/23 03:13:27;;;;;;;22.20;11.60;;;;;;;8.51;76.04;99270.23;106065;1274;97885;-63
2022/09/23 03:16:23;;;;;;;22.80;11.60;;;;;;;8.51;76.16;99267.25;106105;1274;96336;-65
2022/09/23 03:18:56;;;;;;;22.10;11.10;;;;;;;8.53;76.05;99266.55;105989;1274;111470;-63
2022/09/23 03:21:39;;;;;;;22.60;11.20;;;;;;;8.54;76.15;99260.54;106024;1274;96576;-65
2022/09/23 03:24:13;;;;;;;22.50;11.90;;;;;;;8.55;76.13;99262.08;106129;1274;107755;-62
2022/09/23 03:26:47;;;;;;;22.60;11.90;;;;;;;8.55;76.14;99264.52;106176;1274;96532;-61
2022/09/23 03:29:20;;;;;;;21.80;10.80;;;;;;;8.52;76.07;99266.81;106104;1274;96962;-64
2022/09/23 03:31:48;;;;;;;22.30;11.60;;;;;;;8.51;76.04;99267.06;106049;1274;112094;-63
2022/09/23 03:34:27;;;;;;;22.80;11.10;;;;;;;8.51;76.19;99265.65;106068;1274;95746;-63
2022/09/23 03:37:09;;;;;;;20.90;10.20;;;;;;;8.53;76.25;99264.82;106052;1274;107778;-64
2022/09/23 03:39:50;;;;;;;22.10;11.00;;;;;;;8.54;76.21;99264.91;106054;1274;100046;-62
2022/09/23 03:42:22;;;;;;;19.60;10.00;;;;;;;8.55;76.25;99264.54;107802;1274;95825;-64
2022/09/23 03:44:55;;;;;;;20.80;10.80;;;;;;;8.55;76.15;99265.41;106392;1274;111582;-65
2022/09/23 03:47:26;;;;;;;24.40;10.80;;;;;;;8.55;76.24;99261.70;107866;1274;95674;-64
2022/09/23 03:49:55;;;;;;;23.50;11.00;;;;;;;8.55;76.21;99261.67;107885;1273;107774;-62
2022/09/23 03:52:28;;;;;;;21.20;10.20;;;;;;;8.58;76.10;99255.52;107509;1273;95762;-63
2022/09/23 03:55:00;;;;;;;23.00;11.10;;;;;;;8.57;76.10;99256.95;103133;1274;4184441;-63
2022/09/23 03:57:28;;;;;;;23.70;11.30;;;;;;;8.54;76.09;99258.41;106094;1274;111005;-62
2022/09/23 03:59:56;;;;;;;23.30;11.40;;;;;;;8.51;76.05;99259.63;106075;1274;97979;-64
2022/09/23 04:02:26;;;;;;;23.70;11.20;;;;;;;8.51;76.24;99260.69;106094;1274;108001;-64
2022/09/23 04:04:56;;;;;;;24.00;12.20;;;;;;;8.51;76.24;99259.29;106164;1274;97860;-63
2022/09/23 04:07:24;;;;;;;23.00;12.10;;;;;;;8.51;76.22;99262.80;105997;1275;97686;-63
2022/09/23 04:09:54;;;;;;;22.40;11.80;;;;;;;8.49;76.13;99262.91;106204;1274;112016;-64
2022/09/23 04:12:24;;;;;;;23.20;12.60;;;;;;;8.47;76.30;99261.80;106050;1274;97879;-64
2022/09/23 04:14:55;;;;;;;22.60;12.30;;;;;;;8.45;76.33;99262.40;106031;1274;108610;-64
2022/09/23 04:17:23;;;;;;;22.70;12.30;;;;;;;8.45;76.40;99267.73;105997;1273;98576;-66
2022/09/23 04:19:55;;;;;;;24.20;12.50;;;;;;;8.48;76.42;99264.58;106092;1274;97872;-66
2022/09/23 04:22:23;;;;;;;25.00;13.80;;;;;;;8.49;76.33;99267.35;106024;1274;111851;-63
2022/09/23 04:24:54;;;;;;;24.90;12.80;;;;;;;8.48;76.43;99270.38;105973;1274;95497;-64
2022/09/23 04:27:22;;;;;;;23.40;12.50;;;;;;;8.48;76.37;99266.52;106038;1274;108089;-64
2022/09/23 04:29:53;;;;;;;24.10;13.20;;;;;;;8.48;76.32;99265.09;106064;1274;97953;-63
2022/09/23 04:32:25;;;;;;;22.80;12.90;;;;;;;8.49;76.46;99264.88;106157;1274;97952;-64
2022/09/23 04:34:56;;;;;;;23.90;13.10;;;;;;;8.47;76.34;99267.98;106143;1274;111367;-65
2022/09/23 04:37:28;;;;;;;24.70;14.10;;;;;;;8.47;76.41;99273.42;106133;1274;97988;-65
2022/09/23 04:40:02;;;;;;;23.80;13.70;;;;;;;8.48;76.50;99271.29;106024;1274;108498;-63
2022/09/23 04:42:31;;;;;;;24.70;14.20;;;;;;;8.48;76.47;99269.35;106153;1274;97982;-63
2022/09/23 04:45:00;;;;;;;25.80;13.80;;;;;;;8.48;76.38;99269.51;106234;1274;97856;-63
2022/09/23 04:47:34;;;;;;;26.40;14.70;;;;;;;8.47;76.48;99271.84;106157;1274;112059;-64
2022/09/23 04:50:02;;;;;;;25.00;14.00;;;;;;;8.47;76.37;99275.90;106211;1274;97864;-65
2022/09/23 04:52:30;;;;;;;27.00;14.40;;;;;;;8.45;76.38;99276.40;106092;1274;108525;-66
2022/09/23 04:55:07;;;;;;;25.50;14.20;;;;;;;8.42;76.47;99274.61;106166;1274;95298;-64
2022/09/23 04:57:38;;;;;;;25.00;14.00;;;;;;;8.42;76.49;99276.39;106077;1274;98996;-65
2022/09/23 05:00:14;;;;;;;24.80;14.90;;;;;;;8.42;76.52;99275.50;106011;1274;111888;-65
2022/09/23 05:02:47;;;;;;;27.80;15.50;;;;;;;8.44;76.57;99277.17;106106;1274;98558;-65
2022/09/23 05:05:22;;;;;;;29.70;16.00;;;;;;;8.45;76.57;99275.19;106094;1274;108430;-66
2022/09/23 05:07:50;;;;;;;28.70;15.00;;;;;;;8.45;76.54;99273.91;106054;1274;97872;-64
2022/09/23 05:10:25;;;;;;;26.30;15.60;;;;;;;8.46;76.57;99274.94;106220;1274;97882;-65
2022/09/23 05:12:53;;;;;;;25.80;15.30;;;;;;;8.46;76.51;99274.91;106035;1274;112039;-66
2022/09/23 05:15:27;;;;;;;26.40;15.70;;;;;;;8.46;76.64;99272.98;106141;1274;97886;-65
2022/09/23 05:17:58;;;;;;;25.90;15.00;;;;;;;8.45;76.60;99274.80;106216;1274;108179;-64
2022/09/23 05:20:26;;;;;;;25.70;15.10;;;;;;;8.44;76.60;99273.64;106095;1274;97965;-64
2022/09/23 05:22:54;;;;;;;27.10;14.50;;;;;;;8.45;76.65;99274.65;106083;1274;98097;-64
2022/09/23 05:25:22;;;;;;;26.50;16.00;;;;;;;8.47;76.61;99275.02;106079;1274;111937;-64
2022/09/23 05:27:51;;;;;;;26.80;15.30;;;;;;;8.49;76.73;99278.13;106052;1274;96304;-64
2022/09/23 05:30:19;;;;;;;25.30;14.90;;;;;;;8.51;76.77;99278.89;106021;1274;108396;-66
2022/09/23 05:32:47;;;;;;;28.70;15.50;;;;;;;8.53;76.66;99283.92;105995;1274;97978;-65
2022/09/23 05:35:15;;;;;;;25.70;15.60;;;;;;;8.56;76.71;99287.26;106043;1274;97854;-64
2022/09/23 05:37:43;;;;;;;24.90;15.10;;;;;;;8.59;76.67;99286.72;105976;1274;112098;-66
2022/09/23 05:40:11;;;;;;;26.60;15.20;;;;;;;8.60;76.75;99286.84;106003;1274;97901;-64
2022/09/23 05:42:40;;;;;;;26.60;15.70;;;;;;;8.62;76.82;99287.95;106097;1274;108370;-64
2022/09/23 05:45:08;;;;;;;27.30;15.60;;;;;;;8.67;76.87;99288.58;106104;1274;97934;-65
2022/09/23 05:47:37;;;;;;;28.10;16.20;;;;;;;8.69;76.68;99294.77;106086;1274;97880;-63
2022/09/23 05:50:06;;;;;;;26.30;16.20;;;;;;;8.70;76.63;99298.06;106004;1274;112053;-62
2022/09/23 05:52:34;;;;;;;27.30;16.70;;;;;;;8.70;76.65;99295.60;106028;1274;97877;-64
2022/09/23 05:55:02;;;;;;;28.20;16.50;;;;;;;8.73;76.75;99298.27;105897;1274;108374;-64
2022/09/23 05:57:30;;;;;;;28.70;16.20;;;;;;;8.75;76.80;99295.63;105994;1277;95221;-64
2022/09/23 05:59:58;;;;;;;25.60;14.40;;;;;;;8.78;76.85;99296.17;106057;1274;97967;-64
2022/09/23 06:02:26;;;;;;;28.20;16.30;;;;;;;8.78;76.76;99301.65;106058;1274;112031;-64
2022/09/23 06:04:54;;;;;;;24.80;14.00;;;;;;;8.79;76.79;99299.97;106164;1274;97998;-64
2022/09/23 06:07:23;;;;;;;24.90;14.90;;;;;;;8.80;76.73;99298.88;106148;1274;108376;-64
2022/09/23 06:09:52;;;;;;;30.70;16.60;;;;;;;8.76;76.74;99301.23;106166;1274;97812;-64
2022/09/23 06:12:23;;;;;;;27.60;16.50;;;;;;;8.75;76.72;99298.34;106058;1274;97888;-65
2022/09/23 06:14:53;;;;;;;26.00;15.90;;;;;;;8.75;76.83;99297.43;106067;1274;112019;-65
2022/09/23 06:17:22;;;;;;;25.60;14.90;;;;;;;8.78;76.95;99303.09;106451;1274;98058;-62
2022/09/23 06:19:51;;;;;;;25.20;15.50;;;;;;;8.81;76.92;99295.14;106054;1274;108205;-63
2022/09/23 06:22:19;;;;;;;28.30;16.50;;;;;;;8.82;76.94;99293.64;106011;1274;97881;-65
2022/09/23 06:24:47;;;;;;;26.10;15.90;;;;;;;8.88;76.95;99297.36;106177;1274;97891;-65
2022/09/23 06:27:16;;;;;;;26.20;15.30;;;;;;;8.89;76.85;99298.88;106106;1276;112310;-65
2022/09/23 06:29:44;;;;;;;28.10;16.50;;;;;;;8.89;76.81;99298.02;106042;1274;95372;-65
2022/09/23 06:32:12;;;;;;;25.90;15.20;;;;;;;8.87;76.88;99296.32;105912;1274;108551;-66
2022/09/23 06:34:44;;;;;;;26.70;16.10;;;;;;;8.88;76.88;99300.65;107897;1274;95626;-64
2022/09/23 06:37:18;;;;;;;28.40;15.60;;;;;;;8.92;76.99;99299.56;107525;1274;97857;-64
2022/09/23 06:39:50;;;;;;;28.70;15.60;;;;;;;8.98;76.96;99296.94;105871;1274;111985;-64
2022/09/23 06:42:18;;;;;;;28.90;16.40;;;;;;;9.02;76.99;99298.90;106095;1274;95598;-63
2022/09/23 06:44:47;;;;;;;27.00;15.60;;;;;;;9.07;76.98;99302.68;105992;1274;108543;-65
2022/09/23 06:47:16;;;;;;;28.00;16.20;;;;;;;9.13;76.98;99305.73;106224;1274;97975;-63
2022/09/23 06:49:44;;;;;;;26.20;15.00;;;;;;;9.15;76.94;99308.76;106172;1274;97834;-65
2022/09/23 06:52:12;;;;;;;26.50;16.20;;;;;;;9.17;76.86;99307.36;106214;1274;112116;-64
2022/09/23 06:54:40;;;;;;;26.00;15.70;;;;;;;9.20;76.94;99310.38;106139;1274;95426;-65
2022/09/23 06:57:09;;;;;;;26.10;16.00;;;;;;;9.21;76.96;99314.87;106132;1274;108368;-61
2022/09/23 06:59:37;;;;;;;25.20;15.20;;;;;;;9.23;77.02;99310.55;106119;1274;97922;-64
2022/09/23 07:02:09;;;;;;;25.50;15.80;;;;;;;9.28;77.08;99312.22;106260;1274;97851;-64
2022/09/23 07:04:37;;;;;;;24.80;15.60;;;;;;;9.32;77.07;99316.39;106148;1274;111617;-63
2022/09/23 07:07:05;;;;;;;27.70;16.10;;;;;;;9.36;77.10;99316.96;106211;1274;95194;-63
2022/09/23 07:09:34;;;;;;;26.20;15.00;;;;;;;9.41;77.18;99310.64;106131;1274;108284;-64
2022/09/23 07:12:01;;;;;;;25.10;14.40;;;;;;;9.46;77.06;99311.42;106080;1274;97963;-65
2022/09/23 07:14:30;;;;;;;24.00;13.80;;;;;;;9.50;77.02;99308.65;106097;1274;97843;-64
2022/09/23 07:16:59;;;;;;;28.70;15.10;;;;;;;9.55;76.92;99308.06;106056;1274;112033;-64
2022/09/23 07:19:27;;;;;;;24.70;14.70;;;;;;;9.58;76.92;99308.55;106077;1274;95352;-64
2022/09/23 07:21:56;;;;;;;26.90;15.60;;;;;;;9.63;77.01;99310.30;106082;1274;108830;-63
2022/09/23 07:24:24;;;;;;;25.20;15.10;;;;;;;9.72;77.10;99311.20;106077;1274;96572;-65
2022/09/23 07:26:53;;;;;;;25.90;15.00;;;;;;;9.80;77.13;99317.03;106089;1274;97860;-63
2022/09/23 07:29:23;;;;;;;25.30;14.70;;;;;;;9.87;77.13;99317.80;106146;1274;111987;-65
2022/09/23 07:31:51;;;;;;;26.30;15.70;;;;;;;9.91;77.04;99316.70;106105;1274;97876;-65
2022/09/23 07:34:22;;;;;;;24.10;14.90;;;;;;;9.94;76.97;99317.91;106076;1274;108838;-64
2022/09/23 07:36:53;;;;;;;24.10;14.40;;;;;;;9.93;76.98;99321.30;106063;1274;97891;-65
2022/09/23 07:39:22;;;;;;;26.20;14.90;;;;;;;9.95;77.08;99320.09;106099;1274;97854;-66
2022/09/23 07:41:50;;;;;;;26.10;16.00;;;;;;;9.98;77.03;99325.02;106102;1274;112391;-66
2022/09/23 07:44:20;;;;;;;25.30;15.50;;;;;;;10.01;77.10;99324.87;106000;1274;97874;-64
2022/09/23 07:46:50;;;;;;;26.80;15.10;;;;;;;10.03;76.90;99320.82;106086;1274;108422;-64
2022/09/23 07:49:18;;;;;;;24.30;14.30;;;;;;;10.07;76.94;99318.99;106008;1275;97930;-63
2022/09/23 07:51:47;;;;;;;23.90;13.70;;;;;;;10.12;76.89;99313.48;106232;1274;97993;-62
2022/09/23 07:54:18;;;;;;;23.90;13.80;;;;;;;10.18;76.96;99317.55;106212;1274;111029;-61
2022/09/23 07:56:47;;;;;;;22.00;12.70;;;;;;;10.24;76.83;99314.10;106239;1274;97880;-64
2022/09/23 07:59:17;;;;;;;24.70;13.40;;;;;;;10.31;76.96;99313.66;106206;1274;108297;-65
2022/09/23 08:01:49;;;;;;;24.80;13.30;;;;;;;10.34;76.85;99310.10;106092;1274;97772;-64
2022/09/23 08:04:22;;;;;;;24.00;13.70;;;;;;;10.38;76.87;99311.56;106070;1274;97937;-65
2022/09/23 08:07:00;;;;;;;22.70;12.40;;;;;;;10.44;76.94;99313.17;106064;1274;111386;-65
2022/09/23 08:09:40;;;;;;;22.00;12.70;;;;;;;10.52;76.94;99313.66;106079;1274;95391;-65
2022/09/23 08:12:17;;;;;;;22.50;12.10;;;;;;;10.60;76.96;99317.23;105762;1274;108398;-65
2022/09/23 08:14:44;;;;;;;23.90;12.40;;;;;;;10.66;77.03;99316.50;106059;1274;97996;-65
2022/09/23 08:17:13;;;;;;;20.90;11.70;;;;;;;10.74;76.98;99316.59;106101;1274;97880;-63
2022/09/23 08:19:42;;;;;;;21.60;11.10;;;;;;;10.85;76.92;99316.02;106136;1274;112082;-64
2022/09/23 08:22:11;;;;;;;21.00;11.80;;;;;;;10.95;76.87;99313.73;105952;1276;98607;-65
2022/09/23 08:24:40;;;;;;;19.00;9.60;;;;;;;11.07;76.93;99312.90;106073;1274;108335;-65
2022/09/23 08:27:10;;;;;;;21.20;11.10;;;;;;;11.13;76.85;99310.70;106048;1274;97956;-64
2022/09/23 08:29:39;;;;;;;19.80;10.40;;;;;;;11.22;76.74;99318.23;106129;1274;98001;-65
2022/09/23 08:32:09;;;;;;;17.60;8.70;;;;;;;11.28;76.63;99317.63;106044;1274;112230;-66
2022/09/23 08:34:38;;;;;;;19.60;10.50;;;;;;;11.39;76.55;99312.98;106067;1274;97880;-66
2022/09/23 08:37:10;;;;;;;19.20;9.90;;;;;;;11.52;76.62;99312.00;106011;1274;108348;-64
2022/09/23 08:39:38;;;;;;;19.40;10.00;;;;;;;11.70;76.85;99311.04;106048;1274;96329;-64
2022/09/23 08:42:21;;;;;;;17.80;8.80;;;;;;;12.10;76.50;99306.42;106068;1274;97837;-63
2022/09/23 08:45:00;;;;;;;17.20;8.60;;;;;;;12.45;76.43;99307.64;105931;1274;112209;-62
2022/09/23 08:47:51;;;;;;;17.30;8.30;;;;;;;12.75;76.24;99302.52;105971;1274;97944;-64
2022/09/23 08:50:23;;;;;;;16.10;7.90;;;;;;;12.95;76.26;99303.77;106019;1274;108391;-63
2022/09/23 08:53:01;;;;;;;18.20;8.30;;;;;;;13.06;76.45;99296.55;106062;1274;97902;-65
2022/09/23 08:55:46;;;;;;;15.90;8.10;;;;;;;13.09;76.44;99299.51;106032;1273;97871;-64
2022/09/23 08:58:43;;;;;;;17.60;8.00;;;;;;;13.19;76.48;99301.77;106038;1274;112473;-64
2022/09/23 09:01:43;;;;;;;15.30;6.80;;;;;;;13.22;76.32;99297.73;106002;1274;97842;-63
2022/09/23 09:04:21;;;;;;;15.40;7.10;;;;;;;13.45;76.36;99299.89;105878;1274;107008;-64
2022/09/23 09:07:03;;;;;;;15.30;7.20;;;;;;;13.81;76.26;99297.48;106016;1274;98045;-65
2022/09/23 09:09:59;;;;;;;14.00;6.30;;;;;;;13.97;76.14;99296.19;105984;1274;96517;-65
2022/09/23 09:12:48;;;;;;;16.00;7.50;;;;;;;13.96;76.16;99295.71;106060;1274;111899;-64
2022/09/23 09:15:25;;;;;;;13.90;6.70;;;;;;;13.95;76.05;99295.97;106109;1274;96570;-64
2022/09/23 09:18:17;;;;;;;14.80;6.20;;;;;;;13.98;75.92;99295.58;106149;1274;106758;-63
2022/09/23 09:20:55;;;;;;;15.10;6.40;;;;;;;14.17;75.80;99294.86;106066;1275;97947;-64
2022/09/23 09:23:58;;;;;;;13.20;6.60;;;;;;;14.40;75.86;99293.63;105943;1274;97895;-64
2022/09/23 09:26:34;;;;;;;14.10;7.10;;;;;;;14.73;75.95;99292.73;105964;1274;111453;-63
2022/09/23 09:29:17;;;;;;;14.20;6.20;;;;;;;14.87;75.84;99290.09;105968;1274;97978;-65
2022/09/23 09:32:23;;;;;;;14.60;6.40;;;;;;;15.29;75.54;99284.45;106075;1274;108307;-67
2022/09/23 09:35:04;;;;;;;12.60;5.60;;;;;;;15.58;75.17;99278.61;106019;1274;98033;-64
2022/09/23 09:37:41;;;;;;;13.10;5.50;;;;;;;15.80;75.03;99274.54;105980;1274;97882;-66
2022/09/23 09:40:12;;;;;;;10.70;5.80;;;;;;;15.91;75.14;99274.08;105957;1274;111404;-65
2022/09/23 09:42:47;;;;;;;11.70;5.30;;;;;;;15.86;74.96;99268.77;106081;1274;97886;-64
2022/09/23 09:45:33;;;;;;;10.80;5.30;;;;;;;15.90;75.16;99267.17;106078;1274;105849;-66
2022/09/23 09:48:16;;;;;;;11.10;5.40;;;;;;;15.92;74.98;99265.98;106034;1274;97940;-64
2022/09/23 09:50:53;;;;;;;10.40;5.20;;;;;;;15.72;74.97;99261.09;106004;1274;97796;-64
2022/09/23 09:53:29;;;;;;;9.60;5.00;;;;;;;15.60;74.80;99267.54;106068;1274;111430;-66
2022/09/23 09:56:01;;;;;;;11.90;5.40;;;;;;;15.40;74.71;99265.42;106050;1274;96518;-66
2022/09/23 09:58:49;;;;;;;13.40;5.60;;;;;;;15.28;74.72;99263.27;106054;1274;105412;-65
2022/09/23 10:01:29;;;;;;;11.20;5.00;;;;;;;15.21;74.52;99260.89;105999;1274;97899;-65
2022/09/23 10:04:03;;;;;;;10.90;5.10;;;;;;;15.06;74.26;99259.86;106060;1274;97963;-65
2022/09/23 10:06:35;;;;;;;8.60;4.50;;;;;;;15.02;74.47;99262.36;106108;1274;111491;-64
2022/09/23 10:09:06;;;;;;;8.40;4.10;;;;;;;14.93;74.10;99261.55;106043;1274;96419;-65
2022/09/23 10:11:35;;;;;;;8.70;4.40;;;;;;;14.91;74.13;99252.59;105956;1274;106945;-66
2022/09/23 10:14:17;;;;;;;8.90;4.40;;;;;;;14.98;74.13;99251.21;106100;1274;96428;-65
2022/09/23 10:17:01;;;;;;;8.50;4.30;;;;;;;15.14;74.03;99246.45;106029;1274;97911;-69
2022/09/23 10:19:34;;;;;;;8.70;4.20;;;;;;;15.29;74.14;99237.44;106039;1274;112077;-65
2022/09/23 10:22:16;;;;;;;6.90;4.00;;;;;;;15.44;74.05;99237.76;106087;1274;97979;-65
2022/09/23 10:24:52;;;;;;;8.80;4.00;;;;;;;15.47;73.60;99235.77;105928;1274;108794;-66
2022/09/23 10:27:34;;;;;;;7.60;4.30;;;;;;;15.44;73.72;99230.95;106043;1274;97837;-65
2022/09/23 10:30:22;;;;;;;7.90;4.20;;;;;;;15.43;73.42;99234.42;106005;1274;96368;-65
2022/09/23 10:32:56;;;;;;;8.80;4.50;;;;;;;15.38;73.20;99233.25;106023;1274;110418;-63
2022/09/23 10:35:27;;;;;;;10.10;4.60;;;;;;;15.31;73.13;99232.31;106074;1273;95238;-64
2022/09/23 10:37:59;;;;;;;10.60;4.70;;;;;;;15.21;73.10;99236.38;106032;1274;108518;-65
2022/09/23 10:46:37;;;;;;;8.60;4.20;;;;;;;14.85;72.74;99258.65;105935;1274;112112;-65
2022/09/23 10:49:12;;;;;;;10.70;4.20;;;;;;;14.63;72.73;99266.77;106019;1274;97745;-63
2022/09/23 10:52:08;;;;;;;6.10;3.30;;;;;;;14.25;72.40;99281.05;105961;1274;110546;-64
2022/09/23 10:54:55;;;;;;;5.60;3.00;;;;;;;13.59;71.90;99280.76;106011;1274;97495;-64
2022/09/23 10:57:41;;;;;;;5.30;2.80;;;;;;;13.10;72.03;99282.89;106004;1274;97866;-65
2022/09/23 11:00:31;;;;;;;6.70;2.90;;;;;;;12.79;72.06;99289.75;106028;1274;112089;-63
2022/09/23 11:03:24;;;;;;;3.60;2.30;;;;;;;12.53;72.00;99284.33;105987;1274;97876;-64
2022/09/23 11:06:10;;;;;;;3.80;2.60;;;;;;;12.26;71.82;99285.07;106055;1274;107762;-64
2022/09/23 11:08:53;;;;;;;6.20;2.60;;;;;;;12.12;71.99;99272.13;106052;1274;97931;-66
2022/09/23 11:11:36;;;;;;;5.60;3.00;;;;;;;12.07;72.11;99267.50;106032;1274;97216;-65
2022/09/23 11:14:29;;;;;;;6.40;3.30;;;;;;;12.03;71.99;99268.86;106011;1274;111944;-66
2022/09/23 11:17:23;;;;;;;9.20;3.00;;;;;;;11.97;71.78;99261.85;105991;1274;96589;-67
2022/09/23 11:20:04;;;;;;;5.20;3.10;;;;;;;11.94;71.91;99259.00;106069;1274;108439;-64
2022/09/23 11:22:52;;;;;;;18.00;8.20;;;;;;;11.95;71.80;99252.90;106209;1274;96379;-66
2022/09/23 11:25:43;;;;;;;89.30;57.60;;;;;;;11.98;71.72;99246.50;106228;1274;95651;-68
2022/09/23 11:28:29;;;;;;;19.40;8.60;;;;;;;12.05;71.75;99241.55;106157;1274;111397;-65
2022/09/23 11:31:19;;;;;;;8.90;3.50;;;;;;;12.15;71.71;99241.65;106195;1274;97856;-64
2022/09/23 11:34:06;;;;;;;7.60;3.40;;;;;;;12.27;71.57;99237.04;106159;1274;108665;-65
2022/09/23 11:36:52;;;;;;;5.90;3.00;;;;;;;12.42;71.62;99240.14;106179;1274;97969;-65
2022/09/23 11:39:42;;;;;;;5.50;3.00;;;;;;;12.52;71.47;99234.92;106169;1274;97967;-65
2022/09/23 11:42:35;;;;;;;17.90;7.40;;;;;;;12.65;71.55;99230.86;106146;1274;112015;-66
2022/09/23 11:45:17;;;;;;;9.30;4.00;;;;;;;12.76;71.50;99228.25;106145;1274;98922;-66
2022/09/23 11:48:10;;;;;;;6.60;3.20;;;;;;;12.94;71.53;99226.32;106126;1274;106367;-65
2022/09/23 11:50:52;;;;;;;8.00;3.10;;;;;;;13.07;71.28;99223.11;106151;1274;97877;-64
2022/09/23 11:53:37;;;;;;;7.50;3.40;;;;;;;13.14;71.12;99216.48;106203;1274;97963;-65
2022/09/23 11:56:16;;;;;;;9.20;3.50;;;;;;;13.22;71.06;99213.75;106135;1274;112146;-64
2022/09/23 11:59:25;;;;;;;3.80;2.30;;;;;;;13.27;71.12;99215.82;106170;1274;97864;-62
2022/09/23 12:02:32;;;;;;;5.20;2.30;;;;;;;13.30;71.02;99218.98;106160;1274;107301;-63
2022/09/23 12:05:14;;;;;;;2.90;2.20;;;;;;;13.31;70.93;99217.65;106044;1274;95403;-63